Metar z pełnej godziny Komunikat METAR ze strony awiacja.imgw.pl Metar G00 EPSY METAR EPSY 220600Z 28010G21KT 240V330 8000 -RA SCT009 BKN016 OVC020 04/03 Q1018=